Portada
METAR-TAF:

METAR-TAF

Aeropuertos :

Aeropuerto de Salamanca

Salamanca, España

latitud: 40-57N, longitud: 005-30W, altitud: 793 m

Observación

El informe se hizo hace 18 minutos, a las 08:00 UTC
Viento calma
Temperatura -2°C
Humedad 93%
Presión 1031 hPa
Visibilidad 10 km o más
sin nubes por debajo de 1500 m y sin presencia de cumulonimbus.

METAR: LESA 220800Z 00000KT CAVOK M02/M03 Q1031

Hora: 09:18 (08:18 UTC)

Pronóstico

El informe se hizo hace 3 horas y 18 minutos, a las 05:00 UTC
Pronóstico válido del 22 a las 06 UTC al 23 a las 06 UTC
Viento 4 kt del sur
Visibilidad 10 km o más
sin nubes por debajo de 1500 m y sin presencia de cumulonimbus.

TAF: LESA 220500Z 2206/2306 17004KT CAVOK TX20/2215Z TNM04/2207Z

Observaciones y pronósticos meteorológicos de más de 4000 aeropuertos (mensajes METAR y TAF).

Los puntos amarillos y rojos representan las estaciones disponibles.

Ponga el ratón en el punto deseado para ver el nombre de la estación.

Haga clic para ver las observaciones y los pronósticos meteorológicos.

Para cambiar el mapa : haga clic en los botones verdes con una cruz de color negro para hacer un zoom, en el botón verde con un guión para alejar o en las flechas verdes para mapas adyacentes.


METAR-TAF: